Boxborough, MA

2:21 AM EDT on August 30, 2014 (GMT -0400)
Pilgrim Village | Change Station
CLOSE
Current Station
Personal Weather Station
Location: Westford, MA
Elevation: 246 ft
Nearby Weather Stations

Elev 246 ft 42.61 °N, 71.47 °W | Updated 22 seconds ago

Clear
Clear
55.0 °F
Feels Like 55.0 °F
N
0.0
Wind Variable Wind from North
Gusts 0.0 mph

Today
High -- | Low -- °F
--% Chance of Precip.
Yesterday
High -- | Low -- °F
Precip. -- in
6:08 AM 7:23 PM
Waxing Crescent, 19% visible
Pressure 30.32 in
Visibility 10.0 miles
Clouds Clear
Dew Point Not available.
Humidity Not available.
Rainfall 0.00 in
Snow Depth Not available.
UV 0 out of 12
Pollen 8.80 out of 12
Air Quality Not available.
Flu Activity Not available.
METAR KBED 300556Z AUTO 00000KT 10SM CLR 12/11 A3028 RMK AO2 SLP266 T01170106 10167 20111 53006 TSNO

More Conditions Fewer Conditions

Pressure 30.32 in
Visibility 10.0 miles
Clouds Clear
Dew Point Not available.
Humidity Not available.
Rainfall 0.00 in
Snow Depth Not available.
UV 0 out of 12
Pollen 8.80 out of 12
Air Quality Not available.
Flu Activity Not available.
METAR KBED 300556Z AUTO 00000KT 10SM CLR 12/11 A3028 RMK AO2 SLP266 T01170106 10167 20111 53006 TSNO

More Conditions Fewer Conditions

10-Day Weather Forecast

Almanac

Astronomy

Aug. 30, 2014 Rise Set
Actual Time 6:08 AM EDT 7:23 PM EDT
Civil Twilight 5:39 AM EDT 7:52 PM EDT
Nautical Twilight 5:04 AM EDT 8:27 PM EDT
Astronomical Twilight 4:28 AM EDT 9:04 PM EDT
Moon 11:00 AM EDT 9:48 PM EDT
Length of Visible Light 14h 12m
Length of Day
13h 14m
Tomorrow will be 2m 45s shorter.
Waxing Crescent, 19% of the Moon is Illuminated
Today
Waxing Crescent
Sep 2
First Quarter
Sep 8
Full
Sep 15
Last Quarter
Sep 24
New

Today's Extremes

State Highs State Lows

Community

WunderPhotos

Upload Photos

1,748,465 photos uploaded!

Nearby

Air Quality

  Air Quality AQ Index Pollutant
Saturday Good
PM2.5
Saturday Good
OZONE

Snow Depth

Station Depth Elevation
No new snow has been reported.

Earthquake Activity

City Distance Mag. Time & Date
No recent earthquake activity has been reported nearby.
Minimum magnitude displayed is 2.5.

Coastal Water Temperatures

Place Temperature
Boston, MA 68.0 °F
Providence, RI 71.1 °F
Fall River, MA 73.0 °F
Conimicut Light, RI 72.0 °F

Nearby Weather Stations